sensor_id;sensor_type;location;lat;lon;timestamp;P1;durP1;ratioP1;P2;durP2;ratioP2
14748;SDS011;7466;53.574;9.976;2023-03-01T00:01:07;7.60;;;6.57;;
14748;SDS011;7466;53.574;9.976;2023-03-01T00:03:41;10.80;;;6.67;;
14748;SDS011;7466;53.574;9.976;2023-03-01T00:06:14;11.07;;;6.60;;
14748;SDS011;7466;53.574;9.976;2023-03-01T00:08:41;9.27;;;6.73;;
14748;SDS011;7466;53.574;9.976;2023-03-01T00:11:09;8.17;;;6.50;;
14748;SDS011;7466;53.574;9.976;2023-03-01T00:13:38;9.53;;;6.77;;
14748;SDS011;7466;53.574;9.976;2023-03-01T00:16:15;7.50;;;6.80;;
14748;SDS011;7466;53.574;9.976;2023-03-01T00:18:45;9.07;;;6.70;;
14748;SDS011;7466;53.574;9.976;2023-03-01T00:21:13;9.30;;;6.90;;
14748;SDS011;7466;53.574;9.976;2023-03-01T00:23:40;8.43;;;7.00;;
14748;SDS011;7466;53.574;9.976;2023-03-01T00:26:07;8.67;;;6.87;;
14748;SDS011;7466;53.574;9.976;2023-03-01T00:28:36;7.97;;;6.33;;
14748;SDS011;7466;53.574;9.976;2023-03-01T00:31:03;14.03;;;6.87;;
14748;SDS011;7466;53.574;9.976;2023-03-01T00:33:31;7.63;;;6.57;;
14748;SDS011;7466;53.574;9.976;2023-03-01T00:36:00;9.40;;;6.67;;
14748;SDS011;7466;53.574;9.976;2023-03-01T00:38:34;10.33;;;7.60;;
14748;SDS011;7466;53.574;9.976;2023-03-01T00:41:04;10.77;;;7.23;;
14748;SDS011;7466;53.574;9.976;2023-03-01T00:43:32;9.83;;;6.70;;
14748;SDS011;7466;53.574;9.976;2023-03-01T00:46:14;10.27;;;6.50;;
14748;SDS011;7466;53.574;9.976;2023-03-01T00:48:43;11.80;;;7.10;;
14748;SDS011;7466;53.574;9.976;2023-03-01T00:51:13;10.17;;;6.97;;
14748;SDS011;7466;53.574;9.976;2023-03-01T00:53:41;8.27;;;6.80;;
14748;SDS011;7466;53.574;9.976;2023-03-01T00:56:09;7.60;;;6.67;;
14748;SDS011;7466;53.574;9.976;2023-03-01T00:58:37;11.50;;;6.90;;
14748;SDS011;7466;53.574;9.976;2023-03-01T01:01:07;8.53;;;7.40;;
14748;SDS011;7466;53.574;9.976;2023-03-01T01:03:42;9.50;;;7.23;;
14748;SDS011;7466;53.574;9.976;2023-03-01T01:06:17;11.17;;;7.00;;
14748;SDS011;7466;53.574;9.976;2023-03-01T01:08:45;10.87;;;6.77;;
14748;SDS011;7466;53.574;9.976;2023-03-01T01:11:13;7.93;;;6.90;;
14748;SDS011;7466;53.574;9.976;2023-03-01T01:13:50;6.70;;;5.70;;
14748;SDS011;7466;53.574;9.976;2023-03-01T01:16:18;8.83;;;6.50;;
14748;SDS011;7466;53.574;9.976;2023-03-01T01:18:46;7.53;;;6.63;;
14748;SDS011;7466;53.574;9.976;2023-03-01T01:21:13;6.93;;;6.23;;
14748;SDS011;7466;53.574;9.976;2023-03-01T01:23:43;9.37;;;6.90;;
14748;SDS011;7466;53.574;9.976;2023-03-01T01:26:12;8.43;;;5.80;;
14748;SDS011;7466;53.574;9.976;2023-03-01T01:28:42;8.27;;;6.40;;
14748;SDS011;7466;53.574;9.976;2023-03-01T01:31:09;11.13;;;6.63;;
14748;SDS011;7466;53.574;9.976;2023-03-01T01:33:36;7.60;;;6.83;;
14748;SDS011;7466;53.574;9.976;2023-03-01T01:36:04;9.00;;;6.60;;
14748;SDS011;7466;53.574;9.976;2023-03-01T01:38:32;7.77;;;6.50;;
14748;SDS011;7466;53.574;9.976;2023-03-01T01:41:00;7.57;;;6.80;;
14748;SDS011;7466;53.574;9.976;2023-03-01T01:43:28;9.00;;;6.67;;
14748;SDS011;7466;53.574;9.976;2023-03-01T01:46:35;10.60;;;6.97;;
14748;SDS011;7466;53.574;9.976;2023-03-01T01:48:49;7.63;;;6.63;;
14748;SDS011;7466;53.574;9.976;2023-03-01T01:51:21;7.43;;;6.23;;
14748;SDS011;7466;53.574;9.976;2023-03-01T01:53:55;8.77;;;6.57;;
14748;SDS011;7466;53.574;9.976;2023-03-01T01:56:27;7.13;;;6.17;;
14748;SDS011;7466;53.574;9.976;2023-03-01T01:58:55;9.10;;;6.73;;
14748;SDS011;7466;53.574;9.976;2023-03-01T02:01:23;10.40;;;6.87;;
14748;SDS011;7466;53.574;9.976;2023-03-01T02:03:51;8.10;;;7.30;;
14748;SDS011;7466;53.574;9.976;2023-03-01T02:06:19;8.00;;;6.40;;
14748;SDS011;7466;53.574;9.976;2023-03-01T02:08:48;9.67;;;6.70;;
14748;SDS011;7466;53.574;9.976;2023-03-01T02:11:17;8.40;;;6.70;;
14748;SDS011;7466;53.574;9.976;2023-03-01T02:13:50;7.17;;;6.47;;
14748;SDS011;7466;53.574;9.976;2023-03-01T02:16:19;7.40;;;6.70;;
14748;SDS011;7466;53.574;9.976;2023-03-01T02:18:52;9.07;;;6.57;;
14748;SDS011;7466;53.574;9.976;2023-03-01T02:24:12;7.40;;;6.20;;
14748;SDS011;7466;53.574;9.976;2023-03-01T02:26:51;7.70;;;6.50;;
14748;SDS011;7466;53.574;9.976;2023-03-01T02:29:23;8.70;;;5.80;;
14748;SDS011;7466;53.574;9.976;2023-03-01T02:31:52;7.57;;;6.87;;
14748;SDS011;7466;53.574;9.976;2023-03-01T02:34:22;8.50;;;5.87;;
14748;SDS011;7466;53.574;9.976;2023-03-01T02:36:52;7.43;;;6.50;;
14748;SDS011;7466;53.574;9.976;2023-03-01T02:39:24;7.33;;;6.17;;
14748;SDS011;7466;53.574;9.976;2023-03-01T02:41:54;9.03;;;6.80;;
14748;SDS011;7466;53.574;9.976;2023-03-01T02:44:23;7.70;;;7.00;;
14748;SDS011;7466;53.574;9.976;2023-03-01T02:46:51;7.50;;;6.80;;
14748;SDS011;7466;53.574;9.976;2023-03-01T02:49:21;7.73;;;6.30;;
14748;SDS011;7466;53.574;9.976;2023-03-01T02:52:01;7.53;;;6.57;;
14748;SDS011;7466;53.574;9.976;2023-03-01T02:54:50;10.50;;;6.53;;
14748;SDS011;7466;53.574;9.976;2023-03-01T02:57:23;8.77;;;6.37;;
14748;SDS011;7466;53.574;9.976;2023-03-01T02:59:54;7.90;;;7.10;;
14748;SDS011;7466;53.574;9.976;2023-03-01T03:02:22;9.17;;;6.83;;
14748;SDS011;7466;53.574;9.976;2023-03-01T03:05:03;7.40;;;6.10;;
14748;SDS011;7466;53.574;9.976;2023-03-01T03:07:33;8.87;;;6.67;;
14748;SDS011;7466;53.574;9.976;2023-03-01T03:10:00;10.43;;;7.00;;
14748;SDS011;7466;53.574;9.976;2023-03-01T03:12:27;9.90;;;6.13;;
14748;SDS011;7466;53.574;9.976;2023-03-01T03:14:55;7.60;;;6.37;;
14748;SDS011;7466;53.574;9.976;2023-03-01T03:17:22;9.30;;;6.23;;
14748;SDS011;7466;53.574;9.976;2023-03-01T03:19:49;6.63;;;6.03;;
14748;SDS011;7466;53.574;9.976;2023-03-01T03:22:16;6.67;;;5.73;;
14748;SDS011;7466;53.574;9.976;2023-03-01T03:24:43;6.40;;;5.80;;
14748;SDS011;7466;53.574;9.976;2023-03-01T03:27:10;6.70;;;5.40;;
14748;SDS011;7466;53.574;9.976;2023-03-01T03:29:36;6.37;;;5.77;;
14748;SDS011;7466;53.574;9.976;2023-03-01T03:32:08;6.67;;;5.67;;
14748;SDS011;7466;53.574;9.976;2023-03-01T03:34:35;6.37;;;5.30;;
14748;SDS011;7466;53.574;9.976;2023-03-01T03:37:01;7.53;;;5.37;;
14748;SDS011;7466;53.574;9.976;2023-03-01T03:39:28;7.33;;;5.40;;
14748;SDS011;7466;53.574;9.976;2023-03-01T03:41:59;6.87;;;5.60;;
14748;SDS011;7466;53.574;9.976;2023-03-01T03:44:27;6.00;;;5.00;;
14748;SDS011;7466;53.574;9.976;2023-03-01T03:46:54;5.80;;;5.30;;
14748;SDS011;7466;53.574;9.976;2023-03-01T03:49:23;9.53;;;5.07;;
14748;SDS011;7466;53.574;9.976;2023-03-01T03:51:50;5.50;;;5.00;;
14748;SDS011;7466;53.574;9.976;2023-03-01T03:54:16;6.73;;;4.97;;
14748;SDS011;7466;53.574;9.976;2023-03-01T03:56:43;4.33;;;3.93;;
14748;SDS011;7466;53.574;9.976;2023-03-01T03:59:10;4.73;;;4.33;;
14748;SDS011;7466;53.574;9.976;2023-03-01T04:01:37;7.07;;;4.67;;
14748;SDS011;7466;53.574;9.976;2023-03-01T04:04:04;6.47;;;5.10;;
14748;SDS011;7466;53.574;9.976;2023-03-01T04:06:34;4.57;;;4.13;;
14748;SDS011;7466;53.574;9.976;2023-03-01T04:09:01;7.90;;;4.70;;
14748;SDS011;7466;53.574;9.976;2023-03-01T04:11:28;5.77;;;4.40;;
14748;SDS011;7466;53.574;9.976;2023-03-01T04:13:55;5.00;;;4.50;;
14748;SDS011;7466;53.574;9.976;2023-03-01T04:16:25;4.80;;;4.40;;
14748;SDS011;7466;53.574;9.976;2023-03-01T04:18:52;5.23;;;4.20;;
14748;SDS011;7466;53.574;9.976;2023-03-01T04:21:25;4.67;;;4.20;;
14748;SDS011;7466;53.574;9.976;2023-03-01T04:23:54;4.80;;;4.33;;
14748;SDS011;7466;53.574;9.976;2023-03-01T04:26:20;6.10;;;4.17;;
14748;SDS011;7466;53.574;9.976;2023-03-01T04:28:47;4.43;;;4.03;;
14748;SDS011;7466;53.574;9.976;2023-03-01T04:31:15;4.80;;;4.40;;
14748;SDS011;7466;53.574;9.976;2023-03-01T04:33:47;6.47;;;3.90;;
14748;SDS011;7466;53.574;9.976;2023-03-01T04:36:16;4.63;;;4.20;;
14748;SDS011;7466;53.574;9.976;2023-03-01T04:38:46;5.23;;;4.47;;
14748;SDS011;7466;53.574;9.976;2023-03-01T04:41:15;4.33;;;3.70;;
14748;SDS011;7466;53.574;9.976;2023-03-01T04:43:43;5.67;;;4.27;;
14748;SDS011;7466;53.574;9.976;2023-03-01T04:46:11;6.67;;;4.33;;
14748;SDS011;7466;53.574;9.976;2023-03-01T04:48:40;4.67;;;4.03;;
14748;SDS011;7466;53.574;9.976;2023-03-01T04:51:08;4.63;;;4.17;;
14748;SDS011;7466;53.574;9.976;2023-03-01T04:53:38;4.10;;;3.70;;
14748;SDS011;7466;53.574;9.976;2023-03-01T04:56:06;6.23;;;3.80;;
14748;SDS011;7466;53.574;9.976;2023-03-01T04:58:34;4.37;;;3.97;;
14748;SDS011;7466;53.574;9.976;2023-03-01T05:01:01;6.33;;;4.10;;
14748;SDS011;7466;53.574;9.976;2023-03-01T05:03:40;4.53;;;4.10;;
14748;SDS011;7466;53.574;9.976;2023-03-01T05:06:08;4.10;;;3.80;;
14748;SDS011;7466;53.574;9.976;2023-03-01T05:08:35;4.53;;;3.63;;
14748;SDS011;7466;53.574;9.976;2023-03-01T05:11:03;4.60;;;4.20;;
14748;SDS011;7466;53.574;9.976;2023-03-01T05:13:30;6.00;;;4.37;;
14748;SDS011;7466;53.574;9.976;2023-03-01T05:15:59;4.50;;;4.07;;
14748;SDS011;7466;53.574;9.976;2023-03-01T05:18:27;5.87;;;3.60;;
14748;SDS011;7466;53.574;9.976;2023-03-01T05:21:00;5.30;;;3.83;;
14748;SDS011;7466;53.574;9.976;2023-03-01T05:23:29;5.67;;;4.23;;
14748;SDS011;7466;53.574;9.976;2023-03-01T05:25:57;6.40;;;4.37;;
14748;SDS011;7466;53.574;9.976;2023-03-01T05:28:24;6.97;;;4.17;;
14748;SDS011;7466;53.574;9.976;2023-03-01T05:30:53;6.40;;;4.40;;
14748;SDS011;7466;53.574;9.976;2023-03-01T05:33:21;5.70;;;4.47;;
14748;SDS011;7466;53.574;9.976;2023-03-01T05:35:48;4.50;;;4.20;;
14748;SDS011;7466;53.574;9.976;2023-03-01T05:38:16;4.60;;;4.20;;
14748;SDS011;7466;53.574;9.976;2023-03-01T05:40:44;5.40;;;3.90;;
14748;SDS011;7466;53.574;9.976;2023-03-01T05:43:13;5.17;;;4.10;;
14748;SDS011;7466;53.574;9.976;2023-03-01T05:45:41;5.53;;;4.13;;
14748;SDS011;7466;53.574;9.976;2023-03-01T05:48:09;6.07;;;4.33;;
14748;SDS011;7466;53.574;9.976;2023-03-01T05:50:38;8.23;;;4.47;;
14748;SDS011;7466;53.574;9.976;2023-03-01T05:53:07;7.10;;;4.40;;
14748;SDS011;7466;53.574;9.976;2023-03-01T05:55:37;8.17;;;4.63;;
14748;SDS011;7466;53.574;9.976;2023-03-01T05:58:05;4.97;;;4.47;;
14748;SDS011;7466;53.574;9.976;2023-03-01T06:00:33;12.13;;;4.67;;
14748;SDS011;7466;53.574;9.976;2023-03-01T06:03:01;5.23;;;4.60;;
14748;SDS011;7466;53.574;9.976;2023-03-01T06:05:28;5.60;;;4.50;;
14748;SDS011;7466;53.574;9.976;2023-03-01T06:07:57;9.23;;;4.50;;
14748;SDS011;7466;53.574;9.976;2023-03-01T06:10:28;5.73;;;4.43;;
14748;SDS011;7466;53.574;9.976;2023-03-01T06:12:55;8.23;;;4.60;;
14748;SDS011;7466;53.574;9.976;2023-03-01T06:15:23;6.43;;;4.57;;
14748;SDS011;7466;53.574;9.976;2023-03-01T06:17:51;5.47;;;4.33;;
14748;SDS011;7466;53.574;9.976;2023-03-01T06:20:31;5.57;;;4.50;;
14748;SDS011;7466;53.574;9.976;2023-03-01T06:23:00;7.60;;;4.40;;
14748;SDS011;7466;53.574;9.976;2023-03-01T06:25:26;6.23;;;4.33;;
14748;SDS011;7466;53.574;9.976;2023-03-01T06:27:54;5.73;;;4.77;;
14748;SDS011;7466;53.574;9.976;2023-03-01T06:30:22;10.60;;;3.50;;
14748;SDS011;7466;53.574;9.976;2023-03-01T06:32:50;12.47;;;4.33;;
14748;SDS011;7466;53.574;9.976;2023-03-01T06:35:18;8.10;;;4.30;;
14748;SDS011;7466;53.574;9.976;2023-03-01T06:37:46;7.07;;;4.33;;
14748;SDS011;7466;53.574;9.976;2023-03-01T06:40:20;9.77;;;3.93;;
14748;SDS011;7466;53.574;9.976;2023-03-01T06:42:47;8.93;;;4.60;;
14748;SDS011;7466;53.574;9.976;2023-03-01T06:45:22;5.40;;;4.10;;
14748;SDS011;7466;53.574;9.976;2023-03-01T06:47:50;9.03;;;4.40;;
14748;SDS011;7466;53.574;9.976;2023-03-01T06:50:17;10.97;;;4.87;;
14748;SDS011;7466;53.574;9.976;2023-03-01T06:52:46;9.37;;;4.60;;
14748;SDS011;7466;53.574;9.976;2023-03-01T06:55:13;9.90;;;4.53;;
14748;SDS011;7466;53.574;9.976;2023-03-01T06:57:41;5.70;;;4.83;;
14748;SDS011;7466;53.574;9.976;2023-03-01T07:00:09;6.07;;;4.53;;
14748;SDS011;7466;53.574;9.976;2023-03-01T07:02:36;9.87;;;4.80;;
14748;SDS011;7466;53.574;9.976;2023-03-01T07:05:04;6.60;;;4.60;;
14748;SDS011;7466;53.574;9.976;2023-03-01T07:07:31;6.10;;;4.70;;
14748;SDS011;7466;53.574;9.976;2023-03-01T07:09:58;11.47;;;4.53;;
14748;SDS011;7466;53.574;9.976;2023-03-01T07:12:24;8.67;;;4.60;;
14748;SDS011;7466;53.574;9.976;2023-03-01T07:14:53;7.10;;;4.83;;
14748;SDS011;7466;53.574;9.976;2023-03-01T07:17:21;9.67;;;5.07;;
14748;SDS011;7466;53.574;9.976;2023-03-01T07:19:48;5.23;;;4.73;;
14748;SDS011;7466;53.574;9.976;2023-03-01T07:22:15;13.70;;;5.20;;
14748;SDS011;7466;53.574;9.976;2023-03-01T07:24:42;9.63;;;4.80;;
14748;SDS011;7466;53.574;9.976;2023-03-01T07:27:12;5.27;;;4.73;;
14748;SDS011;7466;53.574;9.976;2023-03-01T07:29:39;8.90;;;4.80;;
14748;SDS011;7466;53.574;9.976;2023-03-01T07:32:10;7.33;;;5.20;;
14748;SDS011;7466;53.574;9.976;2023-03-01T07:34:37;6.50;;;5.83;;
14748;SDS011;7466;53.574;9.976;2023-03-01T07:37:04;16.73;;;5.33;;
14748;SDS011;7466;53.574;9.976;2023-03-01T07:39:47;7.73;;;5.83;;
14748;SDS011;7466;53.574;9.976;2023-03-01T07:42:14;10.40;;;5.83;;
14748;SDS011;7466;53.574;9.976;2023-03-01T07:44:40;7.67;;;6.93;;
14748;SDS011;7466;53.574;9.976;2023-03-01T07:47:08;11.63;;;6.50;;
14748;SDS011;7466;53.574;9.976;2023-03-01T07:49:36;8.50;;;7.30;;
14748;SDS011;7466;53.574;9.976;2023-03-01T07:52:03;18.13;;;7.03;;
14748;SDS011;7466;53.574;9.976;2023-03-01T07:54:31;8.73;;;7.13;;
14748;SDS011;7466;53.574;9.976;2023-03-01T07:56:58;7.47;;;6.77;;
14748;SDS011;7466;53.574;9.976;2023-03-01T07:59:26;8.53;;;7.70;;
14748;SDS011;7466;53.574;9.976;2023-03-01T08:01:54;12.07;;;8.13;;
14748;SDS011;7466;53.574;9.976;2023-03-01T08:04:21;10.10;;;7.57;;
14748;SDS011;7466;53.574;9.976;2023-03-01T08:06:51;18.50;;;8.63;;
14748;SDS011;7466;53.574;9.976;2023-03-01T08:09:18;13.87;;;7.40;;
14748;SDS011;7466;53.574;9.976;2023-03-01T08:11:45;8.10;;;7.33;;
14748;SDS011;7466;53.574;9.976;2023-03-01T08:14:11;11.70;;;7.80;;
14748;SDS011;7466;53.574;9.976;2023-03-01T08:16:38;10.57;;;7.97;;
14748;SDS011;7466;53.574;9.976;2023-03-01T08:19:11;10.07;;;7.43;;
14748;SDS011;7466;53.574;9.976;2023-03-01T08:21:38;17.37;;;8.37;;
14748;SDS011;7466;53.574;9.976;2023-03-01T08:24:07;11.80;;;8.30;;
14748;SDS011;7466;53.574;9.976;2023-03-01T08:26:35;16.97;;;8.50;;
14748;SDS011;7466;53.574;9.976;2023-03-01T08:29:03;10.07;;;8.90;;
14748;SDS011;7466;53.574;9.976;2023-03-01T08:31:30;14.57;;;9.50;;
14748;SDS011;7466;53.574;9.976;2023-03-01T08:34:02;13.73;;;9.80;;
14748;SDS011;7466;53.574;9.976;2023-03-01T08:36:33;13.37;;;10.70;;
14748;SDS011;7466;53.574;9.976;2023-03-01T08:39:02;12.10;;;9.20;;
14748;SDS011;7466;53.574;9.976;2023-03-01T08:41:31;13.87;;;10.90;;
14748;SDS011;7466;53.574;9.976;2023-03-01T08:43:58;17.37;;;10.47;;
14748;SDS011;7466;53.574;9.976;2023-03-01T08:46:25;12.13;;;10.33;;
14748;SDS011;7466;53.574;9.976;2023-03-01T08:48:55;13.47;;;10.83;;
14748;SDS011;7466;53.574;9.976;2023-03-01T08:51:22;14.00;;;11.03;;
14748;SDS011;7466;53.574;9.976;2023-03-01T08:53:51;15.40;;;10.30;;
14748;SDS011;7466;53.574;9.976;2023-03-01T08:56:18;12.13;;;10.50;;
14748;SDS011;7466;53.574;9.976;2023-03-01T08:58:50;15.57;;;10.47;;
14748;SDS011;7466;53.574;9.976;2023-03-01T09:01:17;15.53;;;10.40;;
14748;SDS011;7466;53.574;9.976;2023-03-01T09:03:45;20.83;;;11.40;;
14748;SDS011;7466;53.574;9.976;2023-03-01T09:06:12;18.53;;;11.60;;
14748;SDS011;7466;53.574;9.976;2023-03-01T09:08:41;15.77;;;12.00;;
14748;SDS011;7466;53.574;9.976;2023-03-01T09:11:10;13.23;;;11.83;;
14748;SDS011;7466;53.574;9.976;2023-03-01T09:13:40;13.47;;;11.87;;
14748;SDS011;7466;53.574;9.976;2023-03-01T09:16:09;17.70;;;12.30;;
14748;SDS011;7466;53.574;9.976;2023-03-01T09:18:38;13.67;;;12.23;;
14748;SDS011;7466;53.574;9.976;2023-03-01T09:21:06;13.73;;;12.27;;
14748;SDS011;7466;53.574;9.976;2023-03-01T09:23:34;14.90;;;12.40;;
14748;SDS011;7466;53.574;9.976;2023-03-01T09:26:04;15.80;;;12.73;;
14748;SDS011;7466;53.574;9.976;2023-03-01T09:28:45;15.43;;;12.70;;
14748;SDS011;7466;53.574;9.976;2023-03-01T09:31:14;15.87;;;12.43;;
14748;SDS011;7466;53.574;9.976;2023-03-01T09:33:45;15.03;;;12.23;;
14748;SDS011;7466;53.574;9.976;2023-03-01T09:36:14;16.17;;;12.43;;
14748;SDS011;7466;53.574;9.976;2023-03-01T09:38:42;15.93;;;12.87;;
14748;SDS011;7466;53.574;9.976;2023-03-01T09:41:10;15.40;;;12.83;;
14748;SDS011;7466;53.574;9.976;2023-03-01T09:43:47;17.97;;;12.73;;
14748;SDS011;7466;53.574;9.976;2023-03-01T09:46:20;13.90;;;12.50;;
14748;SDS011;7466;53.574;9.976;2023-03-01T09:48:50;14.97;;;12.20;;
14748;SDS011;7466;53.574;9.976;2023-03-01T09:51:23;13.40;;;11.77;;
14748;SDS011;7466;53.574;9.976;2023-03-01T09:53:56;16.70;;;12.50;;
14748;SDS011;7466;53.574;9.976;2023-03-01T09:56:27;18.93;;;13.40;;
14748;SDS011;7466;53.574;9.976;2023-03-01T09:58:59;17.70;;;12.57;;
14748;SDS011;7466;53.574;9.976;2023-03-01T10:01:40;15.10;;;11.20;;
14748;SDS011;7466;53.574;9.976;2023-03-01T10:04:20;15.83;;;12.13;;
14748;SDS011;7466;53.574;9.976;2023-03-01T10:06:58;14.83;;;11.73;;
14748;SDS011;7466;53.574;9.976;2023-03-01T10:09:41;13.30;;;11.20;;
14748;SDS011;7466;53.574;9.976;2023-03-01T10:12:13;16.63;;;12.50;;
14748;SDS011;7466;53.574;9.976;2023-03-01T10:14:44;14.83;;;11.10;;
14748;SDS011;7466;53.574;9.976;2023-03-01T10:17:23;13.77;;;10.23;;
14748;SDS011;7466;53.574;9.976;2023-03-01T10:19:53;10.77;;;9.77;;
14748;SDS011;7466;53.574;9.976;2023-03-01T10:22:26;15.07;;;10.77;;
14748;SDS011;7466;53.574;9.976;2023-03-01T10:24:56;11.93;;;10.10;;
14748;SDS011;7466;53.574;9.976;2023-03-01T10:27:25;11.07;;;9.83;;
14748;SDS011;7466;53.574;9.976;2023-03-01T10:29:56;11.73;;;10.30;;
14748;SDS011;7466;53.574;9.976;2023-03-01T10:32:37;12.60;;;11.20;;
14748;SDS011;7466;53.574;9.976;2023-03-01T10:35:15;13.73;;;10.80;;
14748;SDS011;7466;53.574;9.976;2023-03-01T10:37:46;13.63;;;11.00;;
14748;SDS011;7466;53.574;9.976;2023-03-01T10:40:25;12.70;;;11.20;;
14748;SDS011;7466;53.574;9.976;2023-03-01T10:42:52;14.00;;;11.70;;
14748;SDS011;7466;53.574;9.976;2023-03-01T10:45:27;12.03;;;9.90;;
14748;SDS011;7466;53.574;9.976;2023-03-01T10:51:04;10.17;;;9.17;;
14748;SDS011;7466;53.574;9.976;2023-03-01T10:53:33;10.13;;;9.07;;
14748;SDS011;7466;53.574;9.976;2023-03-01T10:56:04;10.53;;;9.03;;
14748;SDS011;7466;53.574;9.976;2023-03-01T10:58:34;13.13;;;10.23;;
14748;SDS011;7466;53.574;9.976;2023-03-01T11:01:03;10.63;;;9.70;;
14748;SDS011;7466;53.574;9.976;2023-03-01T11:03:33;11.03;;;9.10;;
14748;SDS011;7466;53.574;9.976;2023-03-01T11:06:03;11.77;;;9.40;;
14748;SDS011;7466;53.574;9.976;2023-03-01T11:08:33;10.60;;;9.50;;
14748;SDS011;7466;53.574;9.976;2023-03-01T11:13:57;11.40;;;9.93;;
14748;SDS011;7466;53.574;9.976;2023-03-01T11:16:31;10.60;;;9.60;;
14748;SDS011;7466;53.574;9.976;2023-03-01T11:19:03;12.33;;;11.03;;
14748;SDS011;7466;53.574;9.976;2023-03-01T11:21:41;15.43;;;11.90;;
14748;SDS011;7466;53.574;9.976;2023-03-01T11:24:16;12.97;;;11.53;;
14748;SDS011;7466;53.574;9.976;2023-03-01T11:26:45;11.93;;;10.83;;
14748;SDS011;7466;53.574;9.976;2023-03-01T11:29:18;10.57;;;9.57;;
14748;SDS011;7466;53.574;9.976;2023-03-01T11:31:53;10.60;;;9.13;;
14748;SDS011;7466;53.574;9.976;2023-03-01T11:34:31;11.47;;;10.27;;
14748;SDS011;7466;53.574;9.976;2023-03-01T11:37:07;9.67;;;8.63;;
14748;SDS011;7466;53.574;9.976;2023-03-01T11:39:43;9.53;;;8.37;;
14748;SDS011;7466;53.574;9.976;2023-03-01T11:42:17;9.67;;;8.17;;
14748;SDS011;7466;53.574;9.976;2023-03-01T11:44:47;9.67;;;8.50;;
14748;SDS011;7466;53.574;9.976;2023-03-01T11:47:20;9.40;;;8.57;;
14748;SDS011;7466;53.574;9.976;2023-03-01T11:50:10;8.87;;;7.97;;
14748;SDS011;7466;53.574;9.976;2023-03-01T11:52:48;9.90;;;8.13;;
14748;SDS011;7466;53.574;9.976;2023-03-01T11:55:29;8.40;;;7.60;;
14748;SDS011;7466;53.574;9.976;2023-03-01T11:58:14;7.30;;;6.50;;
14748;SDS011;7466;53.574;9.976;2023-03-01T12:01:08;7.90;;;7.13;;
14748;SDS011;7466;53.574;9.976;2023-03-01T12:04:08;8.47;;;7.60;;
14748;SDS011;7466;53.574;9.976;2023-03-01T12:07:01;7.93;;;7.33;;
14748;SDS011;7466;53.574;9.976;2023-03-01T12:09:32;7.47;;;6.87;;
14748;SDS011;7466;53.574;9.976;2023-03-01T12:12:23;7.20;;;6.57;;
14748;SDS011;7466;53.574;9.976;2023-03-01T12:15:09;7.33;;;6.17;;
14748;SDS011;7466;53.574;9.976;2023-03-01T12:17:52;7.93;;;7.13;;
14748;SDS011;7466;53.574;9.976;2023-03-01T12:20:32;7.53;;;6.50;;
14748;SDS011;7466;53.574;9.976;2023-03-01T12:23:15;7.53;;;6.80;;
14748;SDS011;7466;53.574;9.976;2023-03-01T12:26:05;7.30;;;6.70;;
14748;SDS011;7466;53.574;9.976;2023-03-01T12:28:54;7.53;;;6.77;;
14748;SDS011;7466;53.574;9.976;2023-03-01T12:37:40;6.60;;;6.10;;
14748;SDS011;7466;53.574;9.976;2023-03-01T12:40:28;6.70;;;6.10;;
14748;SDS011;7466;53.574;9.976;2023-03-01T12:43:20;6.37;;;5.87;;
14748;SDS011;7466;53.574;9.976;2023-03-01T12:46:03;6.30;;;5.80;;
14748;SDS011;7466;53.574;9.976;2023-03-01T12:48:40;5.73;;;5.33;;
14748;SDS011;7466;53.574;9.976;2023-03-01T12:51:14;6.40;;;5.53;;
14748;SDS011;7466;53.574;9.976;2023-03-01T12:53:46;4.17;;;3.67;;
14748;SDS011;7466;53.574;9.976;2023-03-01T12:56:17;5.97;;;5.57;;
14748;SDS011;7466;53.574;9.976;2023-03-01T12:58:50;6.00;;;5.40;;
14748;SDS011;7466;53.574;9.976;2023-03-01T13:01:28;6.80;;;5.50;;
14748;SDS011;7466;53.574;9.976;2023-03-01T13:04:06;5.77;;;5.20;;
14748;SDS011;7466;53.574;9.976;2023-03-01T13:06:41;4.93;;;4.63;;
14748;SDS011;7466;53.574;9.976;2023-03-01T13:09:19;5.50;;;5.10;;
14748;SDS011;7466;53.574;9.976;2023-03-01T13:11:57;5.53;;;5.03;;
14748;SDS011;7466;53.574;9.976;2023-03-01T13:14:35;6.13;;;5.57;;
14748;SDS011;7466;53.574;9.976;2023-03-01T13:17:29;5.70;;;5.30;;
14748;SDS011;7466;53.574;9.976;2023-03-01T13:20:11;6.87;;;6.30;;
14748;SDS011;7466;53.574;9.976;2023-03-01T13:22:40;6.50;;;6.00;;
14748;SDS011;7466;53.574;9.976;2023-03-01T13:25:12;6.43;;;5.93;;
14748;SDS011;7466;53.574;9.976;2023-03-01T13:27:43;6.43;;;5.93;;
14748;SDS011;7466;53.574;9.976;2023-03-01T13:36:01;8.40;;;5.97;;
14748;SDS011;7466;53.574;9.976;2023-03-01T13:44:20;6.93;;;6.00;;
14748;SDS011;7466;53.574;9.976;2023-03-01T13:46:52;6.37;;;5.80;;
14748;SDS011;7466;53.574;9.976;2023-03-01T13:49:23;7.20;;;6.63;;
14748;SDS011;7466;53.574;9.976;2023-03-01T13:51:54;6.53;;;6.00;;
14748;SDS011;7466;53.574;9.976;2023-03-01T13:54:22;6.40;;;5.90;;
14748;SDS011;7466;53.574;9.976;2023-03-01T13:56:54;6.90;;;6.30;;
14748;SDS011;7466;53.574;9.976;2023-03-01T13:59:23;7.47;;;6.30;;
14748;SDS011;7466;53.574;9.976;2023-03-01T14:01:52;5.90;;;5.50;;
14748;SDS011;7466;53.574;9.976;2023-03-01T14:04:21;5.53;;;5.03;;
14748;SDS011;7466;53.574;9.976;2023-03-01T14:06:50;6.23;;;5.73;;
14748;SDS011;7466;53.574;9.976;2023-03-01T14:09:18;6.23;;;5.73;;
14748;SDS011;7466;53.574;9.976;2023-03-01T14:14:57;5.90;;;5.40;;
14748;SDS011;7466;53.574;9.976;2023-03-01T14:17:31;5.50;;;5.00;;
14748;SDS011;7466;53.574;9.976;2023-03-01T14:20:18;5.83;;;5.17;;
14748;SDS011;7466;53.574;9.976;2023-03-01T14:22:47;6.23;;;5.13;;
14748;SDS011;7466;53.574;9.976;2023-03-01T14:25:17;5.53;;;5.10;;
14748;SDS011;7466;53.574;9.976;2023-03-01T14:27:55;5.97;;;5.47;;
14748;SDS011;7466;53.574;9.976;2023-03-01T14:30:26;6.27;;;5.67;;
14748;SDS011;7466;53.574;9.976;2023-03-01T14:32:58;6.20;;;5.70;;
14748;SDS011;7466;53.574;9.976;2023-03-01T14:35:27;6.03;;;5.53;;
14748;SDS011;7466;53.574;9.976;2023-03-01T14:37:55;6.23;;;5.73;;
14748;SDS011;7466;53.574;9.976;2023-03-01T14:40:28;6.00;;;5.50;;
14748;SDS011;7466;53.574;9.976;2023-03-01T14:43:22;5.97;;;5.47;;
14748;SDS011;7466;53.574;9.976;2023-03-01T14:45:52;5.50;;;5.03;;
14748;SDS011;7466;53.574;9.976;2023-03-01T14:48:19;5.53;;;5.13;;
14748;SDS011;7466;53.574;9.976;2023-03-01T14:50:49;6.27;;;5.67;;
14748;SDS011;7466;53.574;9.976;2023-03-01T14:53:18;5.90;;;5.27;;
14748;SDS011;7466;53.574;9.976;2023-03-01T14:55:48;6.50;;;5.90;;
14748;SDS011;7466;53.574;9.976;2023-03-01T14:58:19;6.40;;;5.73;;
14748;SDS011;7466;53.574;9.976;2023-03-01T15:00:49;6.37;;;5.87;;
14748;SDS011;7466;53.574;9.976;2023-03-01T15:03:23;8.80;;;5.90;;
14748;SDS011;7466;53.574;9.976;2023-03-01T15:05:52;7.30;;;6.60;;
14748;SDS011;7466;53.574;9.976;2023-03-01T15:08:23;6.93;;;6.30;;
14748;SDS011;7466;53.574;9.976;2023-03-01T15:11:01;7.30;;;6.60;;
14748;SDS011;7466;53.574;9.976;2023-03-01T15:13:34;7.07;;;6.47;;
14748;SDS011;7466;53.574;9.976;2023-03-01T15:16:06;6.93;;;6.33;;
14748;SDS011;7466;53.574;9.976;2023-03-01T15:18:43;6.80;;;6.20;;
14748;SDS011;7466;53.574;9.976;2023-03-01T15:21:15;7.10;;;6.17;;
14748;SDS011;7466;53.574;9.976;2023-03-01T15:23:55;10.23;;;6.60;;
14748;SDS011;7466;53.574;9.976;2023-03-01T15:26:55;7.37;;;6.10;;
14748;SDS011;7466;53.574;9.976;2023-03-01T15:29:27;8.57;;;6.00;;
14748;SDS011;7466;53.574;9.976;2023-03-01T15:32:00;7.13;;;6.47;;
14748;SDS011;7466;53.574;9.976;2023-03-01T15:34:29;6.73;;;6.17;;
14748;SDS011;7466;53.574;9.976;2023-03-01T15:36:57;7.20;;;6.50;;
14748;SDS011;7466;53.574;9.976;2023-03-01T15:39:32;7.50;;;6.50;;
14748;SDS011;7466;53.574;9.976;2023-03-01T15:42:03;7.20;;;6.57;;
14748;SDS011;7466;53.574;9.976;2023-03-01T15:44:33;7.90;;;7.10;;
14748;SDS011;7466;53.574;9.976;2023-03-01T15:47:02;11.80;;;8.00;;
14748;SDS011;7466;53.574;9.976;2023-03-01T15:49:36;9.40;;;7.93;;